OJAM/ADJ METAR and TAF weather

Enter ICAO airport designator
Station Type Date Time Source
OJAM METAR 2020/07/14 22:00 UTC NOAA

OJAM 142200Z 24003KT 7000 NSC 25/12 Q1011 NOSIG


Station Type Date Time Source
OJAM Decoded METAR 2020/07/14 22:00 UTC NOAA

Amman Airport, Jordan (OJAM) 31-59N 035-59E 768M
Jul 14, 2020 - 06:00 PM EDT / 2020.07.14 2200 UTC
Wind: from the WSW (240 degrees) at 3 MPH (3 KT):0
Visibility: 4 mile(s):0
Temperature: 77 F (25 C)
Dew Point: 53 F (12 C)
Relative Humidity: 44%
Pressure (altimeter): 29.85 in. Hg (1011 hPa)
ob: OJAM 142200Z 24003KT 7000 NSC 25/12 Q1011 NOSIG
cycle: 22

Station Type Date Time Source
OJAM TAF 2020/07/14 18:12 UTC NOAA

TAF OJAM 141607Z 1418/1524 28004KT 7000 NSC
BECMG 1504/1506 30012KT 5000 HZ

Example: see airport list